createdAt,value
2023-04-20T00:02:03.163Z,17.30
2023-04-20T00:04:31.521Z,15.07
2023-04-20T00:06:59.567Z,12.32
2023-04-20T00:09:28.325Z,17.27
2023-04-20T00:11:56.407Z,18.25
2023-04-20T00:14:24.593Z,17.15
2023-04-20T00:16:52.725Z,12.93
2023-04-20T00:19:22.353Z,14.45
2023-04-20T00:21:50.449Z,14.13
2023-04-20T00:24:18.414Z,15.20
2023-04-20T00:26:46.488Z,15.43
2023-04-20T00:29:14.516Z,13.80
2023-04-20T00:31:42.564Z,12.52
2023-04-20T00:34:10.595Z,14.30
2023-04-20T00:36:39.988Z,14.02
2023-04-20T00:39:08.078Z,12.23
2023-04-20T00:41:36.102Z,15.90
2023-04-20T00:44:04.182Z,14.25
2023-04-20T00:46:32.210Z,13.50
2023-04-20T00:49:01.074Z,13.07
2023-04-20T00:51:29.683Z,18.30
2023-04-20T00:54:01.256Z,16.00
2023-04-20T00:56:29.290Z,12.50
2023-04-20T00:58:57.435Z,16.30
2023-04-20T01:01:26.850Z,12.70
2023-04-20T01:03:55.532Z,12.80
2023-04-20T01:06:24.000Z,16.52
2023-04-20T01:08:55.134Z,13.65
2023-04-20T01:11:24.635Z,13.38
2023-04-20T01:13:52.671Z,19.40
2023-04-20T01:16:20.845Z,17.63
2023-04-20T01:18:50.342Z,16.73
2023-04-20T01:21:21.873Z,18.58
2023-04-20T01:23:51.537Z,17.50
2023-04-20T01:26:20.894Z,13.95
2023-04-20T01:28:51.629Z,13.40
2023-04-20T01:31:20.045Z,17.95
2023-04-20T01:33:48.110Z,16.38
2023-04-20T01:36:16.164Z,18.40
2023-04-20T01:38:46.281Z,18.98
2023-04-20T01:41:15.758Z,20.83
2023-04-20T01:43:43.892Z,18.95
2023-04-20T01:46:13.585Z,19.25
2023-04-20T01:48:41.649Z,18.83
2023-04-20T01:51:09.974Z,20.25
2023-04-20T01:53:38.050Z,17.42
2023-04-20T01:56:06.475Z,16.35
2023-04-20T01:58:35.876Z,13.80
2023-04-20T02:01:04.073Z,13.48
2023-04-20T02:03:32.375Z,15.52
2023-04-20T02:06:00.839Z,16.25
2023-04-20T02:08:31.137Z,12.73
2023-04-20T02:10:59.197Z,11.05
2023-04-20T02:13:27.924Z,14.05
2023-04-20T02:15:57.342Z,11.25
2023-04-20T02:18:25.652Z,12.48
2023-04-20T02:20:54.620Z,14.40
2023-04-20T02:23:22.748Z,13.15
2023-04-20T02:25:50.816Z,14.18
2023-04-20T02:28:19.000Z,11.85
2023-04-20T02:30:47.020Z,14.88
2023-04-20T02:33:16.690Z,13.90
2023-04-20T02:35:45.477Z,16.90
2023-04-20T02:38:13.603Z,14.65
2023-04-20T02:40:41.755Z,15.65
2023-04-20T02:43:09.832Z,16.05
2023-04-20T02:45:39.410Z,12.73
2023-04-20T02:48:09.136Z,14.25
2023-04-20T02:50:39.300Z,13.77
2023-04-20T02:53:15.698Z,16.92
2023-04-20T02:55:46.317Z,17.70
2023-04-20T02:58:28.310Z,16.98
2023-04-20T03:01:13.688Z,11.85
2023-04-20T03:03:42.232Z,14.98
2023-04-20T03:06:14.395Z,12.55
2023-04-20T03:08:46.895Z,31.77
2023-04-20T03:11:33.181Z,15.35
2023-04-20T03:14:02.043Z,14.65
2023-04-20T03:16:30.164Z,13.93
2023-04-20T03:18:59.425Z,17.27
2023-04-20T03:21:28.853Z,21.65
2023-04-20T03:23:57.062Z,15.32
2023-04-20T03:26:25.541Z,16.85
2023-04-20T03:29:12.328Z,18.30
2023-04-20T03:31:41.249Z,18.10
2023-04-20T03:34:11.276Z,15.55
2023-04-20T03:36:40.951Z,17.30
2023-04-20T03:39:09.801Z,16.63
2023-04-20T03:41:37.870Z,18.30
2023-04-20T03:44:07.182Z,17.30
2023-04-20T03:46:36.432Z,17.08
2023-04-20T03:49:04.533Z,31.88
2023-04-20T03:51:32.767Z,18.08
2023-04-20T03:54:02.201Z,18.50
2023-04-20T03:56:30.723Z,15.93
2023-04-20T03:58:59.324Z,16.83
2023-04-20T04:01:28.393Z,14.10
2023-04-20T04:03:56.737Z,15.95
2023-04-20T04:06:25.099Z,11.80
2023-04-20T04:08:53.314Z,10.48
2023-04-20T04:11:22.826Z,14.18
2023-04-20T04:13:51.195Z,30.70
2023-04-20T04:16:19.802Z,14.85
2023-04-20T04:18:50.140Z,13.68
2023-04-20T04:21:18.254Z,16.05
2023-04-20T04:23:53.109Z,13.20
2023-04-20T04:26:31.902Z,12.65
2023-04-20T04:29:00.671Z,15.20
2023-04-20T04:31:28.896Z,9.85
2023-04-20T04:34:03.834Z,12.95
2023-04-20T04:36:40.912Z,14.50
2023-04-20T04:39:13.414Z,11.18
2023-04-20T04:41:49.470Z,14.05
2023-04-20T04:44:28.893Z,8.63
2023-04-20T04:46:57.575Z,9.70
2023-04-20T04:49:27.444Z,11.25
2023-04-20T04:51:55.555Z,10.45
2023-04-20T04:54:23.674Z,7.55
2023-04-20T04:56:53.201Z,10.52
2023-04-20T04:59:21.484Z,10.18
2023-04-20T05:01:49.669Z,12.63
2023-04-20T05:04:17.928Z,11.38
2023-04-20T05:06:46.410Z,8.98
2023-04-20T05:09:14.587Z,8.70
2023-04-20T05:11:42.755Z,10.32
2023-04-20T05:14:12.265Z,12.52
2023-04-20T05:16:40.511Z,10.25
2023-04-20T05:19:08.652Z,9.30
2023-04-20T05:21:38.199Z,10.88
2023-04-20T05:24:07.292Z,14.82
2023-04-20T05:26:35.574Z,15.80
2023-04-20T05:29:03.685Z,9.88
2023-04-20T05:31:33.538Z,13.60
2023-04-20T05:34:01.939Z,14.25
2023-04-20T05:36:30.982Z,13.63
2023-04-20T05:38:59.120Z,12.05
2023-04-20T05:41:27.795Z,12.13
2023-04-20T05:43:56.954Z,14.30
2023-04-20T05:46:25.214Z,17.25
2023-04-20T05:48:54.878Z,9.68
2023-04-20T05:51:23.341Z,13.05
2023-04-20T05:53:51.447Z,13.00
2023-04-20T05:56:19.579Z,15.23
2023-04-20T05:58:48.016Z,11.68
2023-04-20T06:01:16.064Z,11.10
2023-04-20T06:03:44.530Z,11.35
2023-04-20T06:06:16.639Z,12.38
2023-04-20T06:08:44.933Z,12.45
2023-04-20T06:11:13.075Z,14.90
2023-04-20T06:13:41.109Z,11.15
2023-04-20T06:16:10.976Z,12.02
2023-04-20T06:18:39.264Z,13.05
2023-04-20T06:21:10.213Z,10.60
2023-04-20T06:23:40.901Z,13.25
2023-04-20T06:26:10.410Z,10.05
2023-04-20T06:28:39.127Z,12.30
2023-04-20T06:31:07.811Z,9.80
2023-04-20T06:33:36.465Z,11.82
2023-04-20T06:36:07.985Z,9.68
2023-04-20T06:38:36.169Z,8.50
2023-04-20T06:41:05.839Z,8.38
2023-04-20T06:43:34.143Z,9.85
2023-04-20T06:46:02.294Z,9.90
2023-04-20T06:48:32.870Z,7.55
2023-04-20T06:51:01.613Z,6.95
2023-04-20T06:53:29.748Z,7.22
2023-04-20T06:55:58.458Z,6.57
2023-04-20T06:58:28.015Z,7.32
2023-04-20T07:00:56.209Z,8.13
2023-04-20T07:03:24.804Z,10.23
2023-04-20T07:05:53.141Z,7.75
2023-04-20T07:08:21.707Z,9.60
2023-04-20T07:10:49.852Z,9.15
2023-04-20T07:13:18.049Z,9.70
2023-04-20T07:15:47.788Z,8.68
2023-04-20T07:18:16.012Z,8.35
2023-04-20T07:20:44.259Z,9.32
2023-04-20T07:23:12.417Z,10.25
2023-04-20T07:25:40.654Z,7.22
2023-04-20T07:28:09.012Z,8.00
2023-04-20T07:30:37.240Z,8.68
2023-04-20T07:33:07.488Z,10.13
2023-04-20T07:35:35.715Z,8.77
2023-04-20T07:38:03.839Z,8.80
2023-04-20T07:40:32.129Z,8.82
2023-04-20T07:43:01.490Z,9.20
2023-04-20T07:45:29.640Z,9.75
2023-04-20T07:48:01.544Z,10.15
2023-04-20T07:50:32.239Z,12.90
2023-04-20T07:53:00.538Z,11.45
2023-04-20T07:55:28.742Z,9.45
2023-04-20T07:57:57.091Z,10.65
2023-04-20T08:00:26.434Z,9.75
2023-04-20T08:02:57.510Z,9.15
2023-04-20T08:05:31.830Z,10.90
2023-04-20T08:08:01.465Z,9.50
2023-04-20T08:10:29.706Z,14.40
2023-04-20T08:12:58.984Z,9.07
2023-04-20T08:15:27.300Z,10.85
2023-04-20T08:17:55.571Z,10.55
2023-04-20T08:20:24.935Z,11.02
2023-04-20T08:22:53.380Z,9.98
2023-04-20T08:25:24.640Z,10.07
2023-04-20T08:27:53.834Z,10.57
2023-04-20T08:30:32.976Z,11.43
2023-04-20T08:33:01.623Z,12.38
2023-04-20T08:35:32.357Z,11.65
2023-04-20T08:38:02.655Z,10.00
2023-04-20T08:40:33.600Z,10.90
2023-04-20T08:43:02.180Z,11.82
2023-04-20T08:45:31.509Z,13.70
2023-04-20T08:48:00.398Z,10.50
2023-04-20T08:50:28.545Z,12.07
2023-04-20T08:52:56.732Z,12.90
2023-04-20T08:55:24.850Z,16.13
2023-04-20T08:57:54.299Z,12.70
2023-04-20T09:00:22.909Z,13.50
2023-04-20T09:02:52.595Z,13.23
2023-04-20T09:05:29.092Z,14.10
2023-04-20T09:07:59.018Z,13.50
2023-04-20T09:10:28.494Z,13.45
2023-04-20T09:12:58.052Z,11.75
2023-04-20T09:15:27.370Z,12.35
2023-04-20T09:17:55.765Z,12.40
2023-04-20T09:20:35.080Z,11.63
2023-04-20T09:23:13.028Z,12.48
2023-04-20T09:25:43.540Z,11.63
2023-04-20T09:28:14.339Z,14.32
2023-04-20T09:30:44.111Z,14.60
2023-04-20T09:33:14.362Z,12.57
2023-04-20T09:35:43.402Z,11.90
2023-04-20T09:38:12.191Z,12.32
2023-04-20T09:40:40.204Z,14.07
2023-04-20T09:43:15.181Z,12.20
2023-04-20T09:45:45.406Z,15.52
2023-04-20T09:48:17.069Z,16.05
2023-04-20T09:50:50.063Z,11.82
2023-04-20T09:53:20.034Z,13.05
2023-04-20T09:55:49.279Z,12.85
2023-04-20T09:58:19.972Z,11.88
2023-04-20T10:00:49.595Z,14.00
2023-04-20T10:03:19.002Z,13.00
2023-04-20T10:05:47.273Z,15.45
2023-04-20T10:08:15.468Z,12.75
2023-04-20T10:10:48.596Z,15.52
2023-04-20T10:13:19.494Z,11.65
2023-04-20T10:15:49.357Z,14.65
2023-04-20T10:18:19.140Z,12.88
2023-04-20T10:20:47.503Z,15.63
2023-04-20T10:23:16.364Z,12.35
2023-04-20T10:25:57.241Z,12.82
2023-04-20T10:28:25.337Z,10.93
2023-04-20T10:30:55.339Z,12.23
2023-04-20T10:33:23.929Z,15.43
2023-04-20T10:35:55.029Z,13.00
2023-04-20T10:38:33.267Z,12.32
2023-04-20T10:41:08.210Z,11.77
2023-04-20T10:43:39.044Z,12.88
2023-04-20T10:46:16.542Z,15.30
2023-04-20T10:48:55.312Z,10.25
2023-04-20T10:51:24.310Z,11.82
2023-04-20T10:54:04.559Z,12.57
2023-04-20T10:56:40.051Z,14.68
2023-04-20T10:59:08.915Z,13.73
2023-04-20T11:01:38.636Z,13.13
2023-04-20T11:04:07.334Z,13.25
2023-04-20T11:06:35.813Z,13.82
2023-04-20T11:09:04.499Z,12.38
2023-04-20T11:11:32.614Z,17.27
2023-04-20T11:14:08.564Z,15.13
2023-04-20T11:16:49.724Z,12.15
2023-04-20T11:19:24.322Z,11.90
2023-04-20T11:21:52.392Z,11.82
2023-04-20T11:24:21.008Z,11.85
2023-04-20T11:26:51.081Z,13.15
2023-04-20T11:29:29.858Z,15.23
2023-04-20T11:32:00.021Z,12.95
2023-04-20T11:34:28.305Z,14.93
2023-04-20T11:36:57.041Z,15.55
2023-04-20T11:39:26.341Z,17.88
2023-04-20T11:41:54.810Z,17.00
2023-04-20T11:44:22.843Z,13.82
2023-04-20T11:46:53.267Z,20.13
2023-04-20T11:49:22.858Z,15.48
2023-04-20T11:51:52.233Z,14.75
2023-04-20T11:54:21.886Z,14.70
2023-04-20T11:56:50.070Z,15.02
2023-04-20T11:59:20.169Z,15.38
2023-04-20T12:01:48.791Z,13.27
2023-04-20T12:04:17.197Z,17.98
2023-04-20T12:06:47.248Z,16.60
2023-04-20T12:09:15.894Z,19.42
2023-04-20T12:11:44.371Z,20.02
2023-04-20T12:14:12.470Z,40.05
2023-04-20T12:16:40.468Z,25.92
2023-04-20T12:19:09.052Z,23.65
2023-04-20T12:21:37.255Z,24.88
2023-04-20T12:24:07.896Z,25.02
2023-04-20T12:26:38.786Z,25.08
2023-04-20T12:29:07.580Z,28.05
2023-04-20T12:31:36.487Z,27.35
2023-04-20T12:34:04.949Z,24.85
2023-04-20T12:36:35.028Z,28.52
2023-04-20T12:39:04.217Z,28.83
2023-04-20T12:41:34.471Z,26.23
2023-04-20T12:44:05.123Z,30.80
2023-04-20T12:46:34.686Z,29.55
2023-04-20T12:49:03.190Z,28.73
2023-04-20T12:51:31.799Z,32.45
2023-04-20T12:54:00.184Z,35.55
2023-04-20T12:56:28.219Z,30.45
2023-04-20T12:58:57.731Z,33.33
2023-04-20T13:01:25.943Z,33.03
2023-04-20T13:03:54.256Z,35.45
2023-04-20T13:06:22.704Z,34.30
2023-04-20T13:08:51.171Z,37.20
2023-04-20T13:11:19.285Z,39.10
2023-04-20T13:13:47.290Z,40.60
2023-04-20T13:16:16.888Z,42.65
2023-04-20T13:18:45.071Z,40.03
2023-04-20T13:21:13.081Z,41.42
2023-04-20T13:23:41.258Z,40.83
2023-04-20T13:26:09.931Z,40.72
2023-04-20T13:28:38.744Z,39.75
2023-04-20T13:31:06.912Z,46.38
2023-04-20T13:33:36.345Z,43.00
2023-04-20T13:36:04.666Z,44.33
2023-04-20T13:38:32.829Z,51.50
2023-04-20T13:41:00.926Z,46.97
2023-04-20T13:43:28.937Z,46.67
2023-04-20T13:45:57.045Z,43.25
2023-04-20T13:48:25.145Z,44.05
2023-04-20T13:50:55.186Z,42.03
2023-04-20T13:53:23.438Z,49.10
2023-04-20T13:55:51.473Z,45.92
2023-04-20T13:58:19.508Z,41.63
2023-04-20T14:00:47.674Z,40.72
2023-04-20T14:03:18.723Z,43.47
2023-04-20T14:05:47.103Z,39.03
2023-04-20T14:08:16.567Z,44.70
2023-04-20T14:10:44.716Z,39.28
2023-04-20T14:13:12.753Z,40.58
2023-04-20T14:15:41.536Z,38.53
2023-04-20T14:18:09.713Z,39.80
2023-04-20T14:20:37.919Z,39.70
2023-04-20T14:23:09.309Z,37.45
2023-04-20T14:25:39.004Z,36.80
2023-04-20T14:28:07.025Z,35.55
2023-04-20T14:30:35.203Z,35.42
2023-04-20T14:33:04.275Z,38.90
2023-04-20T14:35:32.455Z,37.22
2023-04-20T14:38:00.461Z,41.55
2023-04-20T14:40:28.607Z,42.55
2023-04-20T14:42:58.147Z,48.85
2023-04-20T14:45:26.336Z,37.72
2023-04-20T14:47:55.221Z,41.63
2023-04-20T14:50:23.812Z,41.03
2023-04-20T14:52:51.789Z,42.88
2023-04-20T14:55:23.452Z,40.72
2023-04-20T14:57:51.995Z,38.75
2023-04-20T15:00:23.640Z,37.65
2023-04-20T15:02:52.021Z,33.95
2023-04-20T15:05:20.461Z,32.85
2023-04-20T15:07:50.732Z,36.83
2023-04-20T15:10:19.327Z,36.00
2023-04-20T15:12:48.928Z,34.55
2023-04-20T15:15:17.604Z,32.90
2023-04-20T15:17:47.630Z,34.33
2023-04-20T15:20:16.407Z,40.80
2023-04-20T15:22:44.611Z,36.30
2023-04-20T15:25:12.801Z,35.40
2023-04-20T15:27:40.814Z,35.28
2023-04-20T15:30:09.632Z,37.78
2023-04-20T15:32:37.725Z,39.13
2023-04-20T15:35:07.846Z,35.92
2023-04-20T15:37:35.882Z,34.97
2023-04-20T15:40:04.478Z,36.95
2023-04-20T15:42:33.078Z,38.35
2023-04-20T15:45:01.071Z,33.75
2023-04-20T15:47:29.227Z,34.33
2023-04-20T15:50:01.371Z,32.65
2023-04-20T15:52:31.826Z,33.20
2023-04-20T15:55:00.162Z,30.25
2023-04-20T15:57:28.226Z,31.58
2023-04-20T15:59:56.307Z,30.33
2023-04-20T16:02:24.689Z,38.67
2023-04-20T16:04:52.882Z,33.97
2023-04-20T16:07:21.065Z,34.90
2023-04-20T16:09:50.693Z,32.25
2023-04-20T16:12:18.818Z,33.47
2023-04-20T16:14:46.996Z,31.33
2023-04-20T16:17:15.679Z,32.95
2023-04-20T16:19:43.773Z,31.13
2023-04-20T16:22:12.340Z,27.73
2023-04-20T16:24:40.524Z,28.67
2023-04-20T16:27:09.973Z,28.20
2023-04-20T16:29:38.023Z,23.30
2023-04-20T16:32:07.208Z,25.92
2023-04-20T16:34:35.389Z,29.75
2023-04-20T16:37:03.435Z,24.52
2023-04-20T16:39:31.470Z,28.45
2023-04-20T16:41:59.605Z,24.27
2023-04-20T16:44:29.139Z,34.40
2023-04-20T16:46:57.288Z,27.58
2023-04-20T16:49:26.134Z,25.85
2023-04-20T16:51:54.298Z,25.38
2023-04-20T16:54:25.400Z,23.23
2023-04-20T16:56:53.471Z,24.67
2023-04-20T16:59:21.524Z,33.80
2023-04-20T17:01:51.408Z,24.25
2023-04-20T17:04:19.786Z,23.42
2023-04-20T17:06:48.184Z,25.77
2023-04-20T17:09:16.366Z,21.27
2023-04-20T17:11:44.387Z,24.75
2023-04-20T17:14:12.453Z,22.08
2023-04-20T17:16:40.563Z,20.95
2023-04-20T17:19:10.044Z,23.08
2023-04-20T17:21:40.256Z,19.20
2023-04-20T17:24:08.380Z,19.48
2023-04-20T17:26:36.599Z,22.75
2023-04-20T17:29:04.794Z,20.80
2023-04-20T17:31:33.487Z,20.58
2023-04-20T17:34:01.730Z,21.15
2023-04-20T17:36:32.015Z,20.40
2023-04-20T17:39:00.413Z,19.17
2023-04-20T17:41:28.523Z,21.25
2023-04-20T17:43:56.721Z,19.52
2023-04-20T17:46:24.964Z,19.58
2023-04-20T17:48:54.813Z,21.80
2023-04-20T17:51:23.032Z,21.75
2023-04-20T17:53:52.739Z,17.95
2023-04-20T17:56:21.605Z,17.38
2023-04-20T17:58:49.652Z,19.73
2023-04-20T18:01:17.793Z,19.17
2023-04-20T18:03:46.034Z,20.58
2023-04-20T18:06:14.109Z,18.75
2023-04-20T18:08:42.247Z,21.05
2023-04-20T18:11:11.701Z,19.48
2023-04-20T18:13:39.712Z,19.25
2023-04-20T18:16:08.445Z,20.83
2023-04-20T18:18:36.823Z,21.60
2023-04-20T18:21:05.361Z,18.88
2023-04-20T18:23:33.873Z,22.10
2023-04-20T18:26:01.979Z,22.88
2023-04-20T18:28:31.414Z,21.15
2023-04-20T18:31:00.988Z,20.95
2023-04-20T18:33:29.110Z,20.67
2023-04-20T18:35:57.247Z,22.50
2023-04-20T18:38:25.380Z,20.75
2023-04-20T18:40:53.419Z,21.05
2023-04-20T18:43:21.579Z,20.85
2023-04-20T18:45:51.115Z,22.35
2023-04-20T18:48:19.344Z,20.83
2023-04-20T18:50:47.987Z,20.10
2023-04-20T18:53:16.608Z,19.65
2023-04-20T18:55:44.774Z,21.70
2023-04-20T18:58:12.909Z,21.00
2023-04-20T19:00:41.098Z,18.73
2023-04-20T19:03:10.906Z,20.00
2023-04-20T19:05:39.155Z,19.08
2023-04-20T19:08:07.258Z,18.38
2023-04-20T19:10:35.320Z,20.42
2023-04-20T19:13:03.329Z,21.55
2023-04-20T19:15:31.511Z,18.30
2023-04-20T19:17:59.609Z,19.77
2023-04-20T19:20:29.030Z,19.88
2023-04-20T19:22:57.150Z,18.85
2023-04-20T19:25:25.223Z,19.95
2023-04-20T19:27:53.368Z,19.48
2023-04-20T19:30:21.396Z,20.17
2023-04-20T19:32:49.595Z,21.52
2023-04-20T19:35:17.737Z,19.25
2023-04-20T19:37:47.458Z,23.20
2023-04-20T19:40:16.314Z,22.38
2023-04-20T19:42:44.422Z,23.00
2023-04-20T19:45:12.686Z,22.77
2023-04-20T19:47:40.760Z,20.80
2023-04-20T19:50:09.272Z,23.35
2023-04-20T19:52:37.288Z,20.08
2023-04-20T19:55:07.969Z,21.80
2023-04-20T19:57:36.020Z,22.67
2023-04-20T20:00:05.576Z,21.33
2023-04-20T20:02:41.311Z,22.63
2023-04-20T20:05:09.928Z,23.73
2023-04-20T20:07:38.371Z,22.42
2023-04-20T20:10:08.547Z,24.52
2023-04-20T20:12:36.815Z,24.05
2023-04-20T20:15:05.726Z,24.38
2023-04-20T20:17:33.905Z,25.95
2023-04-20T20:20:02.220Z,22.75
2023-04-20T20:22:30.525Z,23.02
2023-04-20T20:24:58.961Z,22.30
2023-04-20T20:27:28.596Z,22.63
2023-04-20T20:29:56.828Z,21.83
2023-04-20T20:32:25.402Z,23.75
2023-04-20T20:34:53.762Z,24.23
2023-04-20T20:37:22.169Z,23.67
2023-04-20T20:39:50.386Z,24.85
2023-04-20T20:42:18.509Z,22.58
2023-04-20T20:44:47.955Z,22.90
2023-04-20T20:47:16.011Z,21.33
2023-04-20T20:49:44.169Z,24.50
2023-04-20T20:52:12.238Z,21.63
2023-04-20T20:54:40.732Z,23.05
2023-04-20T20:57:08.933Z,23.10
2023-04-20T20:59:37.174Z,21.70
2023-04-20T21:02:06.758Z,21.98
2023-04-20T21:04:35.005Z,23.83
2023-04-20T21:07:03.402Z,23.80
2023-04-20T21:09:31.583Z,22.98
2023-04-20T21:12:00.227Z,22.50
2023-04-20T21:14:28.277Z,20.35
2023-04-20T21:16:56.562Z,22.65
2023-04-20T21:19:26.261Z,23.77
2023-04-20T21:21:54.475Z,21.08
2023-04-20T21:24:22.644Z,24.85
2023-04-20T21:26:50.899Z,24.90
2023-04-20T21:29:19.393Z,25.90
2023-04-20T21:31:47.833Z,25.55
2023-04-20T21:34:15.894Z,23.83
2023-04-20T21:36:45.602Z,25.08
2023-04-20T21:39:13.673Z,22.63
2023-04-20T21:41:41.762Z,28.00
2023-04-20T21:44:09.839Z,25.30
2023-04-20T21:46:37.962Z,25.58
2023-04-20T21:49:06.117Z,24.42
2023-04-20T21:51:34.308Z,26.20
2023-04-20T21:54:03.780Z,23.50
2023-04-20T21:56:31.895Z,22.13
2023-04-20T21:58:59.980Z,21.80
2023-04-20T22:01:28.108Z,21.17
2023-04-20T22:03:56.403Z,19.67
2023-04-20T22:06:24.560Z,21.17
2023-04-20T22:08:52.631Z,20.90
2023-04-20T22:11:22.182Z,20.80
2023-04-20T22:13:50.262Z,16.88
2023-04-20T22:16:21.108Z,19.55
2023-04-20T22:18:49.551Z,18.05
2023-04-20T22:21:17.598Z,19.17
2023-04-20T22:23:45.598Z,18.42
2023-04-20T22:26:13.642Z,19.52
2023-04-20T22:28:43.039Z,19.63
2023-04-20T22:31:11.078Z,20.73
2023-04-20T22:33:39.121Z,18.20
2023-04-20T22:36:08.462Z,16.83
2023-04-20T22:38:37.966Z,18.08
2023-04-20T22:41:06.220Z,17.63
2023-04-20T22:43:34.253Z,18.42
2023-04-20T22:46:03.882Z,17.95
2023-04-20T22:48:31.924Z,17.85
2023-04-20T22:51:01.012Z,18.95
2023-04-20T22:53:29.879Z,18.23
2023-04-20T22:56:04.566Z,19.35
2023-04-20T22:58:32.607Z,19.50
2023-04-20T23:01:00.928Z,18.50
2023-04-20T23:03:31.237Z,18.75
2023-04-20T23:05:59.570Z,17.67
2023-04-20T23:08:28.366Z,20.20
2023-04-20T23:10:56.621Z,18.27
2023-04-20T23:13:26.328Z,19.27
2023-04-20T23:15:54.736Z,18.63
2023-04-20T23:18:22.846Z,18.67
2023-04-20T23:20:52.269Z,17.73
2023-04-20T23:23:20.282Z,18.23
2023-04-20T23:25:48.322Z,18.30
2023-04-20T23:28:16.440Z,16.33
2023-04-20T23:30:44.482Z,17.02
2023-04-20T23:33:12.661Z,18.00
2023-04-20T23:35:40.795Z,16.63
2023-04-20T23:38:10.206Z,17.67
2023-04-20T23:40:39.396Z,18.33
2023-04-20T23:43:07.382Z,19.92
2023-04-20T23:45:35.609Z,17.70
2023-04-20T23:48:03.760Z,18.25
2023-04-20T23:50:31.837Z,16.65
2023-04-20T23:52:59.984Z,16.45
2023-04-20T23:55:29.362Z,14.93
2023-04-20T23:57:58.388Z,17.50
